sensor_id;sensor_type;location;lat;lon;timestamp;P1;durP1;ratioP1;P2;durP2;ratioP2
37895;SDS011;23733;53.254;10.430;2023-04-24T00:01:54;4.53;;;2.77;;
37895;SDS011;23733;53.254;10.430;2023-04-24T00:04:21;6.77;;;2.97;;
37895;SDS011;23733;53.254;10.430;2023-04-24T00:06:51;3.57;;;2.90;;
37895;SDS011;23733;53.254;10.430;2023-04-24T00:09:22;3.10;;;2.60;;
37895;SDS011;23733;53.254;10.430;2023-04-24T00:11:49;4.17;;;2.87;;
37895;SDS011;23733;53.254;10.430;2023-04-24T00:14:15;4.10;;;2.70;;
37895;SDS011;23733;53.254;10.430;2023-04-24T00:16:42;5.20;;;3.07;;
37895;SDS011;23733;53.254;10.430;2023-04-24T00:19:08;4.53;;;3.07;;
37895;SDS011;23733;53.254;10.430;2023-04-24T00:21:34;4.23;;;2.60;;
37895;SDS011;23733;53.254;10.430;2023-04-24T00:24:01;4.77;;;3.30;;
37895;SDS011;23733;53.254;10.430;2023-04-24T00:26:27;6.50;;;3.10;;
37895;SDS011;23733;53.254;10.430;2023-04-24T00:28:53;3.37;;;2.70;;
37895;SDS011;23733;53.254;10.430;2023-04-24T00:31:20;4.50;;;2.80;;
37895;SDS011;23733;53.254;10.430;2023-04-24T00:33:46;3.37;;;2.70;;
37895;SDS011;23733;53.254;10.430;2023-04-24T00:36:12;3.63;;;2.90;;
37895;SDS011;23733;53.254;10.430;2023-04-24T00:38:39;2.90;;;2.50;;
37895;SDS011;23733;53.254;10.430;2023-04-24T00:41:05;6.50;;;2.93;;
37895;SDS011;23733;53.254;10.430;2023-04-24T00:43:32;3.77;;;3.03;;
37895;SDS011;23733;53.254;10.430;2023-04-24T00:45:58;3.67;;;2.73;;
37895;SDS011;23733;53.254;10.430;2023-04-24T00:48:26;4.77;;;2.50;;
37895;SDS011;23733;53.254;10.430;2023-04-24T00:50:53;3.10;;;2.60;;
37895;SDS011;23733;53.254;10.430;2023-04-24T00:53:20;3.27;;;2.50;;
37895;SDS011;23733;53.254;10.430;2023-04-24T00:55:46;4.00;;;2.87;;
37895;SDS011;23733;53.254;10.430;2023-04-24T00:58:12;3.87;;;2.80;;
37895;SDS011;23733;53.254;10.430;2023-04-24T01:00:39;3.10;;;2.67;;
37895;SDS011;23733;53.254;10.430;2023-04-24T01:03:06;3.83;;;2.50;;
37895;SDS011;23733;53.254;10.430;2023-04-24T01:05:32;5.83;;;3.00;;
37895;SDS011;23733;53.254;10.430;2023-04-24T01:07:59;3.37;;;2.83;;
37895;SDS011;23733;53.254;10.430;2023-04-24T01:10:26;3.10;;;2.67;;
37895;SDS011;23733;53.254;10.430;2023-04-24T01:12:53;2.60;;;2.40;;
37895;SDS011;23733;53.254;10.430;2023-04-24T01:15:19;4.67;;;2.27;;
37895;SDS011;23733;53.254;10.430;2023-04-24T01:17:46;2.90;;;2.50;;
37895;SDS011;23733;53.254;10.430;2023-04-24T01:20:12;3.10;;;2.50;;
37895;SDS011;23733;53.254;10.430;2023-04-24T01:22:38;3.53;;;2.40;;
37895;SDS011;23733;53.254;10.430;2023-04-24T01:25:06;4.43;;;2.50;;
37895;SDS011;23733;53.254;10.430;2023-04-24T01:27:32;2.70;;;2.00;;
37895;SDS011;23733;53.254;10.430;2023-04-24T01:29:59;2.77;;;2.33;;
37895;SDS011;23733;53.254;10.430;2023-04-24T01:32:25;3.37;;;2.13;;
37895;SDS011;23733;53.254;10.430;2023-04-24T01:34:51;3.60;;;2.10;;
37895;SDS011;23733;53.254;10.430;2023-04-24T01:37:39;2.83;;;2.03;;
37895;SDS011;23733;53.254;10.430;2023-04-24T01:40:08;3.57;;;2.27;;
37895;SDS011;23733;53.254;10.430;2023-04-24T01:42:45;3.10;;;2.20;;
37895;SDS011;23733;53.254;10.430;2023-04-24T01:45:30;3.80;;;2.20;;
37895;SDS011;23733;53.254;10.430;2023-04-24T01:48:00;2.10;;;1.90;;
37895;SDS011;23733;53.254;10.430;2023-04-24T01:50:30;4.10;;;2.30;;
37895;SDS011;23733;53.254;10.430;2023-04-24T01:53:05;2.37;;;1.83;;
37895;SDS011;23733;53.254;10.430;2023-04-24T01:55:41;2.53;;;2.20;;
37895;SDS011;23733;53.254;10.430;2023-04-24T01:58:10;2.53;;;1.60;;
37895;SDS011;23733;53.254;10.430;2023-04-24T02:00:49;3.47;;;2.00;;
37895;SDS011;23733;53.254;10.430;2023-04-24T02:04:02;1.87;;;1.70;;
37895;SDS011;23733;53.254;10.430;2023-04-24T02:06:54;1.77;;;1.60;;
37895;SDS011;23733;53.254;10.430;2023-04-24T02:12:29;2.60;;;1.70;;
37895;SDS011;23733;53.254;10.430;2023-04-24T02:14:56;1.57;;;1.47;;
37895;SDS011;23733;53.254;10.430;2023-04-24T02:17:22;2.00;;;1.60;;
37895;SDS011;23733;53.254;10.430;2023-04-24T02:19:48;1.93;;;1.73;;
37895;SDS011;23733;53.254;10.430;2023-04-24T02:22:14;1.87;;;1.50;;
37895;SDS011;23733;53.254;10.430;2023-04-24T02:24:44;2.17;;;1.40;;
37895;SDS011;23733;53.254;10.430;2023-04-24T02:27:10;2.30;;;1.50;;
37895;SDS011;23733;53.254;10.430;2023-04-24T02:29:37;2.00;;;1.40;;
37895;SDS011;23733;53.254;10.430;2023-04-24T02:32:03;2.57;;;1.50;;
37895;SDS011;23733;53.254;10.430;2023-04-24T02:34:29;1.80;;;1.53;;
37895;SDS011;23733;53.254;10.430;2023-04-24T02:36:56;3.20;;;1.40;;
37895;SDS011;23733;53.254;10.430;2023-04-24T02:39:22;2.07;;;1.60;;
37895;SDS011;23733;53.254;10.430;2023-04-24T02:41:48;2.57;;;1.40;;
37895;SDS011;23733;53.254;10.430;2023-04-24T02:44:15;2.90;;;1.40;;
37895;SDS011;23733;53.254;10.430;2023-04-24T02:46:42;3.47;;;1.50;;
37895;SDS011;23733;53.254;10.430;2023-04-24T02:49:12;2.07;;;1.43;;
37895;SDS011;23733;53.254;10.430;2023-04-24T02:51:50;1.57;;;1.30;;
37895;SDS011;23733;53.254;10.430;2023-04-24T02:54:25;3.03;;;1.23;;
37895;SDS011;23733;53.254;10.430;2023-04-24T02:57:00;3.33;;;1.40;;
37895;SDS011;23733;53.254;10.430;2023-04-24T02:59:29;2.80;;;1.30;;
37895;SDS011;23733;53.254;10.430;2023-04-24T03:02:03;4.63;;;1.40;;
37895;SDS011;23733;53.254;10.430;2023-04-24T03:04:36;2.30;;;1.30;;
37895;SDS011;23733;53.254;10.430;2023-04-24T03:09:50;2.30;;;1.37;;
37895;SDS011;23733;53.254;10.430;2023-04-24T03:12:43;3.33;;;1.40;;
37895;SDS011;23733;53.254;10.430;2023-04-24T03:15:15;1.47;;;1.07;;
37895;SDS011;23733;53.254;10.430;2023-04-24T03:17:48;1.37;;;1.00;;
37895;SDS011;23733;53.254;10.430;2023-04-24T03:20:23;2.00;;;1.10;;
37895;SDS011;23733;53.254;10.430;2023-04-24T03:22:51;8.33;;;1.40;;
37895;SDS011;23733;53.254;10.430;2023-04-24T03:25:17;1.43;;;1.13;;
37895;SDS011;23733;53.254;10.430;2023-04-24T03:27:52;2.77;;;1.30;;
37895;SDS011;23733;53.254;10.430;2023-04-24T03:30:25;2.63;;;1.23;;
37895;SDS011;23733;53.254;10.430;2023-04-24T03:32:54;1.50;;;1.20;;
37895;SDS011;23733;53.254;10.430;2023-04-24T03:35:26;2.53;;;1.10;;
37895;SDS011;23733;53.254;10.430;2023-04-24T03:38:03;1.20;;;1.10;;
37895;SDS011;23733;53.254;10.430;2023-04-24T03:40:35;1.50;;;1.10;;
37895;SDS011;23733;53.254;10.430;2023-04-24T03:43:14;2.13;;;1.00;;
37895;SDS011;23733;53.254;10.430;2023-04-24T03:45:46;1.10;;;0.90;;
37895;SDS011;23733;53.254;10.430;2023-04-24T03:48:36;1.97;;;1.10;;
37895;SDS011;23733;53.254;10.430;2023-04-24T03:51:19;1.43;;;1.17;;
37895;SDS011;23733;53.254;10.430;2023-04-24T03:53:47;2.70;;;1.10;;
37895;SDS011;23733;53.254;10.430;2023-04-24T03:56:16;1.60;;;1.10;;
37895;SDS011;23733;53.254;10.430;2023-04-24T03:58:43;1.00;;;0.93;;
37895;SDS011;23733;53.254;10.430;2023-04-24T04:01:15;2.40;;;1.30;;
37895;SDS011;23733;53.254;10.430;2023-04-24T04:03:59;1.70;;;1.20;;
37895;SDS011;23733;53.254;10.430;2023-04-24T04:06:25;2.20;;;1.43;;
37895;SDS011;23733;53.254;10.430;2023-04-24T04:08:55;1.83;;;1.20;;
37895;SDS011;23733;53.254;10.430;2023-04-24T04:11:24;1.90;;;1.50;;
37895;SDS011;23733;53.254;10.430;2023-04-24T04:13:50;2.10;;;1.23;;
37895;SDS011;23733;53.254;10.430;2023-04-24T04:16:43;1.53;;;1.20;;
37895;SDS011;23733;53.254;10.430;2023-04-24T04:19:16;1.83;;;1.20;;
37895;SDS011;23733;53.254;10.430;2023-04-24T04:21:45;7.73;;;3.37;;
37895;SDS011;23733;53.254;10.430;2023-04-24T04:24:41;3.43;;;2.20;;
37895;SDS011;23733;53.254;10.430;2023-04-24T04:27:11;3.50;;;2.20;;
37895;SDS011;23733;53.254;10.430;2023-04-24T04:29:49;2.73;;;1.53;;
37895;SDS011;23733;53.254;10.430;2023-04-24T04:32:41;2.60;;;1.53;;
37895;SDS011;23733;53.254;10.430;2023-04-24T04:35:28;1.77;;;1.00;;
37895;SDS011;23733;53.254;10.430;2023-04-24T04:37:57;1.00;;;0.90;;
37895;SDS011;23733;53.254;10.430;2023-04-24T04:40:24;1.20;;;1.00;;
37895;SDS011;23733;53.254;10.430;2023-04-24T04:42:58;3.10;;;1.00;;
37895;SDS011;23733;53.254;10.430;2023-04-24T04:45:28;1.20;;;0.90;;
37895;SDS011;23733;53.254;10.430;2023-04-24T04:51:00;1.07;;;0.97;;
37895;SDS011;23733;53.254;10.430;2023-04-24T04:56:59;1.30;;;1.00;;
37895;SDS011;23733;53.254;10.430;2023-04-24T04:59:43;1.33;;;1.10;;
37895;SDS011;23733;53.254;10.430;2023-04-24T05:02:10;1.10;;;1.00;;
37895;SDS011;23733;53.254;10.430;2023-04-24T05:07:48;1.50;;;1.00;;
37895;SDS011;23733;53.254;10.430;2023-04-24T05:10:23;2.97;;;1.20;;
37895;SDS011;23733;53.254;10.430;2023-04-24T05:12:58;1.43;;;1.20;;
37895;SDS011;23733;53.254;10.430;2023-04-24T05:18:50;1.03;;;0.90;;
37895;SDS011;23733;53.254;10.430;2023-04-24T05:21:28;2.50;;;1.00;;
37895;SDS011;23733;53.254;10.430;2023-04-24T05:24:04;1.00;;;0.90;;
37895;SDS011;23733;53.254;10.430;2023-04-24T05:26:49;1.97;;;0.90;;
37895;SDS011;23733;53.254;10.430;2023-04-24T05:29:15;3.63;;;1.17;;
37895;SDS011;23733;53.254;10.430;2023-04-24T05:34:39;1.70;;;1.00;;
37895;SDS011;23733;53.254;10.430;2023-04-24T05:37:55;5.00;;;1.30;;
37895;SDS011;23733;53.254;10.430;2023-04-24T05:40:50;1.20;;;1.00;;
37895;SDS011;23733;53.254;10.430;2023-04-24T05:46:47;3.27;;;1.07;;
37895;SDS011;23733;53.254;10.430;2023-04-24T05:49:19;1.23;;;0.97;;
37895;SDS011;23733;53.254;10.430;2023-04-24T05:51:49;1.20;;;1.10;;
37895;SDS011;23733;53.254;10.430;2023-04-24T05:54:27;1.70;;;1.10;;
37895;SDS011;23733;53.254;10.430;2023-04-24T05:56:56;4.60;;;1.10;;
37895;SDS011;23733;53.254;10.430;2023-04-24T05:59:45;2.30;;;1.10;;
37895;SDS011;23733;53.254;10.430;2023-04-24T06:02:11;1.70;;;1.13;;
37895;SDS011;23733;53.254;10.430;2023-04-24T06:04:56;1.33;;;1.10;;
37895;SDS011;23733;53.254;10.430;2023-04-24T06:10:25;2.07;;;1.10;;
37895;SDS011;23733;53.254;10.430;2023-04-24T06:12:54;3.20;;;1.10;;
37895;SDS011;23733;53.254;10.430;2023-04-24T06:21:16;1.73;;;1.10;;
37895;SDS011;23733;53.254;10.430;2023-04-24T06:26:35;1.63;;;1.07;;
37895;SDS011;23733;53.254;10.430;2023-04-24T06:46:10;1.57;;;0.90;;
37895;SDS011;23733;53.254;10.430;2023-04-24T06:52:26;1.20;;;0.90;;
37895;SDS011;23733;53.254;10.430;2023-04-24T06:55:27;1.77;;;1.00;;
37895;SDS011;23733;53.254;10.430;2023-04-24T06:58:16;1.63;;;0.90;;
37895;SDS011;23733;53.254;10.430;2023-04-24T07:04:00;2.30;;;1.10;;
37895;SDS011;23733;53.254;10.430;2023-04-24T07:06:26;0.80;;;0.80;;
37895;SDS011;23733;53.254;10.430;2023-04-24T07:08:53;2.00;;;1.00;;
37895;SDS011;23733;53.254;10.430;2023-04-24T07:11:19;1.10;;;0.80;;
37895;SDS011;23733;53.254;10.430;2023-04-24T07:13:45;2.93;;;1.07;;
37895;SDS011;23733;53.254;10.430;2023-04-24T07:16:11;2.50;;;0.90;;
37895;SDS011;23733;53.254;10.430;2023-04-24T07:18:38;1.40;;;0.90;;
37895;SDS011;23733;53.254;10.430;2023-04-24T07:21:05;1.33;;;0.90;;
37895;SDS011;23733;53.254;10.430;2023-04-24T07:23:31;1.13;;;0.90;;
37895;SDS011;23733;53.254;10.430;2023-04-24T07:25:57;2.23;;;1.10;;
37895;SDS011;23733;53.254;10.430;2023-04-24T07:28:23;0.73;;;0.70;;
37895;SDS011;23733;53.254;10.430;2023-04-24T07:30:50;1.33;;;1.10;;
37895;SDS011;23733;53.254;10.430;2023-04-24T07:33:19;2.83;;;1.00;;
37895;SDS011;23733;53.254;10.430;2023-04-24T07:35:45;1.43;;;1.00;;
37895;SDS011;23733;53.254;10.430;2023-04-24T07:38:11;0.90;;;0.80;;
37895;SDS011;23733;53.254;10.430;2023-04-24T07:40:37;2.80;;;1.10;;
37895;SDS011;23733;53.254;10.430;2023-04-24T07:43:03;1.10;;;1.00;;
37895;SDS011;23733;53.254;10.430;2023-04-24T07:45:30;1.43;;;1.10;;
37895;SDS011;23733;53.254;10.430;2023-04-24T07:47:56;1.80;;;0.90;;
37895;SDS011;23733;53.254;10.430;2023-04-24T07:50:22;2.37;;;1.40;;
37895;SDS011;23733;53.254;10.430;2023-04-24T07:52:48;2.67;;;1.23;;
37895;SDS011;23733;53.254;10.430;2023-04-24T07:55:14;1.33;;;1.13;;
37895;SDS011;23733;53.254;10.430;2023-04-24T07:57:41;1.53;;;1.10;;
37895;SDS011;23733;53.254;10.430;2023-04-24T08:00:07;1.20;;;1.00;;
37895;SDS011;23733;53.254;10.430;2023-04-24T08:02:33;1.90;;;1.00;;
37895;SDS011;23733;53.254;10.430;2023-04-24T08:05:00;1.17;;;0.93;;
37895;SDS011;23733;53.254;10.430;2023-04-24T08:07:26;1.33;;;1.03;;
37895;SDS011;23733;53.254;10.430;2023-04-24T08:09:52;1.80;;;1.10;;
37895;SDS011;23733;53.254;10.430;2023-04-24T08:12:19;1.57;;;1.10;;
37895;SDS011;23733;53.254;10.430;2023-04-24T08:14:45;1.50;;;1.20;;
37895;SDS011;23733;53.254;10.430;2023-04-24T08:17:11;1.60;;;1.10;;
37895;SDS011;23733;53.254;10.430;2023-04-24T08:19:37;1.37;;;1.17;;
37895;SDS011;23733;53.254;10.430;2023-04-24T08:22:03;1.33;;;1.10;;
37895;SDS011;23733;53.254;10.430;2023-04-24T08:24:29;2.03;;;1.13;;
37895;SDS011;23733;53.254;10.430;2023-04-24T08:26:55;1.80;;;1.20;;
37895;SDS011;23733;53.254;10.430;2023-04-24T08:29:23;1.70;;;1.00;;
37895;SDS011;23733;53.254;10.430;2023-04-24T08:31:49;2.30;;;1.47;;
37895;SDS011;23733;53.254;10.430;2023-04-24T08:34:15;2.83;;;1.43;;
37895;SDS011;23733;53.254;10.430;2023-04-24T08:36:41;2.00;;;1.40;;
37895;SDS011;23733;53.254;10.430;2023-04-24T08:39:07;3.43;;;1.20;;
37895;SDS011;23733;53.254;10.430;2023-04-24T08:41:33;2.13;;;1.30;;
37895;SDS011;23733;53.254;10.430;2023-04-24T08:44:01;2.27;;;1.30;;
37895;SDS011;23733;53.254;10.430;2023-04-24T08:46:27;1.40;;;1.30;;
37895;SDS011;23733;53.254;10.430;2023-04-24T08:48:55;1.97;;;1.40;;
37895;SDS011;23733;53.254;10.430;2023-04-24T08:51:21;2.07;;;1.37;;
37895;SDS011;23733;53.254;10.430;2023-04-24T08:53:51;2.00;;;1.50;;
37895;SDS011;23733;53.254;10.430;2023-04-24T08:56:20;2.40;;;1.57;;
37895;SDS011;23733;53.254;10.430;2023-04-24T08:58:51;1.87;;;1.40;;
37895;SDS011;23733;53.254;10.430;2023-04-24T09:01:19;2.47;;;1.50;;
37895;SDS011;23733;53.254;10.430;2023-04-24T09:03:46;1.70;;;1.50;;
37895;SDS011;23733;53.254;10.430;2023-04-24T09:06:14;1.87;;;1.70;;
37895;SDS011;23733;53.254;10.430;2023-04-24T09:08:41;4.67;;;1.80;;
37895;SDS011;23733;53.254;10.430;2023-04-24T09:11:09;2.37;;;1.87;;
37895;SDS011;23733;53.254;10.430;2023-04-24T09:13:36;5.47;;;2.50;;
37895;SDS011;23733;53.254;10.430;2023-04-24T09:16:03;4.67;;;2.70;;
37895;SDS011;23733;53.254;10.430;2023-04-24T09:18:29;3.33;;;3.03;;
37895;SDS011;23733;53.254;10.430;2023-04-24T09:20:59;4.90;;;3.60;;
37895;SDS011;23733;53.254;10.430;2023-04-24T09:23:27;5.07;;;3.27;;
37895;SDS011;23733;53.254;10.430;2023-04-24T09:25:55;4.00;;;3.53;;
37895;SDS011;23733;53.254;10.430;2023-04-24T09:28:26;5.43;;;3.80;;
37895;SDS011;23733;53.254;10.430;2023-04-24T09:31:09;5.50;;;3.97;;
37895;SDS011;23733;53.254;10.430;2023-04-24T09:33:39;5.80;;;3.90;;
37895;SDS011;23733;53.254;10.430;2023-04-24T09:36:05;6.27;;;3.97;;
37895;SDS011;23733;53.254;10.430;2023-04-24T09:38:35;4.77;;;4.17;;
37895;SDS011;23733;53.254;10.430;2023-04-24T09:41:03;4.30;;;3.53;;
37895;SDS011;23733;53.254;10.430;2023-04-24T09:43:31;4.60;;;3.80;;
37895;SDS011;23733;53.254;10.430;2023-04-24T09:45:58;5.00;;;4.03;;
37895;SDS011;23733;53.254;10.430;2023-04-24T09:48:34;4.77;;;3.20;;
37895;SDS011;23733;53.254;10.430;2023-04-24T09:51:03;6.13;;;3.40;;
37895;SDS011;23733;53.254;10.430;2023-04-24T09:53:32;3.73;;;3.00;;
37895;SDS011;23733;53.254;10.430;2023-04-24T09:56:02;6.07;;;3.67;;
37895;SDS011;23733;53.254;10.430;2023-04-24T09:58:32;5.57;;;3.77;;
37895;SDS011;23733;53.254;10.430;2023-04-24T10:01:00;6.10;;;3.50;;
37895;SDS011;23733;53.254;10.430;2023-04-24T10:03:26;9.30;;;4.00;;
37895;SDS011;23733;53.254;10.430;2023-04-24T10:05:59;5.90;;;3.40;;
37895;SDS011;23733;53.254;10.430;2023-04-24T10:08:25;5.53;;;3.90;;
37895;SDS011;23733;53.254;10.430;2023-04-24T10:10:52;6.47;;;3.73;;
37895;SDS011;23733;53.254;10.430;2023-04-24T10:13:18;5.30;;;3.80;;
37895;SDS011;23733;53.254;10.430;2023-04-24T10:15:45;6.57;;;4.33;;
37895;SDS011;23733;53.254;10.430;2023-04-24T10:18:12;6.27;;;4.10;;
37895;SDS011;23733;53.254;10.430;2023-04-24T10:20:39;11.73;;;4.10;;
37895;SDS011;23733;53.254;10.430;2023-04-24T10:23:05;4.77;;;3.87;;
37895;SDS011;23733;53.254;10.430;2023-04-24T10:25:33;5.97;;;4.13;;
37895;SDS011;23733;53.254;10.430;2023-04-24T10:28:00;8.53;;;4.10;;
37895;SDS011;23733;53.254;10.430;2023-04-24T10:30:28;6.43;;;4.13;;
37895;SDS011;23733;53.254;10.430;2023-04-24T10:33:02;5.67;;;4.00;;
37895;SDS011;23733;53.254;10.430;2023-04-24T10:35:31;5.90;;;4.13;;
37895;SDS011;23733;53.254;10.430;2023-04-24T10:38:03;5.30;;;4.40;;
37895;SDS011;23733;53.254;10.430;2023-04-24T10:40:34;6.27;;;4.10;;
37895;SDS011;23733;53.254;10.430;2023-04-24T10:43:05;6.03;;;4.17;;
37895;SDS011;23733;53.254;10.430;2023-04-24T10:45:35;5.37;;;4.47;;
37895;SDS011;23733;53.254;10.430;2023-04-24T10:48:02;6.20;;;3.83;;
37895;SDS011;23733;53.254;10.430;2023-04-24T10:50:30;6.67;;;4.30;;
37895;SDS011;23733;53.254;10.430;2023-04-24T10:53:06;6.93;;;4.20;;
37895;SDS011;23733;53.254;10.430;2023-04-24T10:55:40;5.90;;;4.30;;
37895;SDS011;23733;53.254;10.430;2023-04-24T10:58:07;6.30;;;4.27;;
37895;SDS011;23733;53.254;10.430;2023-04-24T11:00:36;5.17;;;3.87;;
37895;SDS011;23733;53.254;10.430;2023-04-24T11:03:04;5.53;;;4.00;;
37895;SDS011;23733;53.254;10.430;2023-04-24T11:08:30;5.47;;;4.33;;
37895;SDS011;23733;53.254;10.430;2023-04-24T11:16:20;4.67;;;3.70;;
37895;SDS011;23733;53.254;10.430;2023-04-24T11:19:00;5.27;;;3.70;;
37895;SDS011;23733;53.254;10.430;2023-04-24T11:21:31;5.13;;;3.20;;
37895;SDS011;23733;53.254;10.430;2023-04-24T11:23:57;4.60;;;3.53;;
37895;SDS011;23733;53.254;10.430;2023-04-24T11:26:23;6.07;;;3.63;;
37895;SDS011;23733;53.254;10.430;2023-04-24T11:28:55;4.10;;;3.40;;
37895;SDS011;23733;53.254;10.430;2023-04-24T11:31:41;3.83;;;2.90;;
37895;SDS011;23733;53.254;10.430;2023-04-24T11:34:15;6.10;;;2.57;;
37895;SDS011;23733;53.254;10.430;2023-04-24T11:36:43;3.47;;;2.47;;
37895;SDS011;23733;53.254;10.430;2023-04-24T11:39:10;6.03;;;2.80;;
37895;SDS011;23733;53.254;10.430;2023-04-24T11:41:37;7.90;;;2.50;;
37895;SDS011;23733;53.254;10.430;2023-04-24T11:44:03;2.83;;;2.40;;
37895;SDS011;23733;53.254;10.430;2023-04-24T11:46:32;2.80;;;2.13;;
37895;SDS011;23733;53.254;10.430;2023-04-24T11:48:58;2.33;;;2.10;;
37895;SDS011;23733;53.254;10.430;2023-04-24T11:51:26;4.37;;;2.00;;
37895;SDS011;23733;53.254;10.430;2023-04-24T11:53:53;2.73;;;2.37;;
37895;SDS011;23733;53.254;10.430;2023-04-24T11:56:23;4.77;;;2.47;;
37895;SDS011;23733;53.254;10.430;2023-04-24T11:58:51;4.90;;;2.53;;
37895;SDS011;23733;53.254;10.430;2023-04-24T12:01:18;3.67;;;2.77;;
37895;SDS011;23733;53.254;10.430;2023-04-24T12:03:48;5.17;;;2.60;;
37895;SDS011;23733;53.254;10.430;2023-04-24T12:06:16;3.47;;;2.87;;
37895;SDS011;23733;53.254;10.430;2023-04-24T12:08:45;5.80;;;2.90;;
37895;SDS011;23733;53.254;10.430;2023-04-24T12:11:14;5.80;;;2.47;;
37895;SDS011;23733;53.254;10.430;2023-04-24T12:13:41;4.83;;;2.70;;
37895;SDS011;23733;53.254;10.430;2023-04-24T12:16:07;3.73;;;2.67;;
37895;SDS011;23733;53.254;10.430;2023-04-24T12:18:33;6.30;;;2.60;;
37895;SDS011;23733;53.254;10.430;2023-04-24T12:21:15;3.27;;;2.17;;
37895;SDS011;23733;53.254;10.430;2023-04-24T12:23:43;3.13;;;2.57;;
37895;SDS011;23733;53.254;10.430;2023-04-24T12:26:11;4.13;;;3.07;;
37895;SDS011;23733;53.254;10.430;2023-04-24T12:28:38;4.83;;;2.87;;
37895;SDS011;23733;53.254;10.430;2023-04-24T12:31:04;3.60;;;2.60;;
37895;SDS011;23733;53.254;10.430;2023-04-24T12:33:32;4.40;;;2.63;;
37895;SDS011;23733;53.254;10.430;2023-04-24T12:35:59;4.20;;;3.00;;
37895;SDS011;23733;53.254;10.430;2023-04-24T12:38:26;3.27;;;2.67;;
37895;SDS011;23733;53.254;10.430;2023-04-24T12:41:05;2.90;;;2.40;;
37895;SDS011;23733;53.254;10.430;2023-04-24T12:43:32;3.77;;;2.60;;
37895;SDS011;23733;53.254;10.430;2023-04-24T12:45:58;3.47;;;2.70;;
37895;SDS011;23733;53.254;10.430;2023-04-24T12:48:28;3.73;;;2.27;;
37895;SDS011;23733;53.254;10.430;2023-04-24T12:50:54;4.00;;;2.83;;
37895;SDS011;23733;53.254;10.430;2023-04-24T12:53:22;2.37;;;2.00;;
37895;SDS011;23733;53.254;10.430;2023-04-24T12:55:48;5.63;;;2.30;;
37895;SDS011;23733;53.254;10.430;2023-04-24T12:58:19;3.70;;;2.30;;
37895;SDS011;23733;53.254;10.430;2023-04-24T13:00:45;2.63;;;2.17;;
37895;SDS011;23733;53.254;10.430;2023-04-24T13:03:12;3.33;;;2.13;;
37895;SDS011;23733;53.254;10.430;2023-04-24T13:05:39;2.40;;;2.00;;
37895;SDS011;23733;53.254;10.430;2023-04-24T13:08:05;2.87;;;2.13;;
37895;SDS011;23733;53.254;10.430;2023-04-24T13:10:31;2.97;;;2.07;;
37895;SDS011;23733;53.254;10.430;2023-04-24T13:12:57;6.00;;;1.97;;
37895;SDS011;23733;53.254;10.430;2023-04-24T13:15:25;3.60;;;2.10;;
37895;SDS011;23733;53.254;10.430;2023-04-24T13:17:51;2.00;;;1.80;;
37895;SDS011;23733;53.254;10.430;2023-04-24T13:20:17;4.47;;;2.00;;
37895;SDS011;23733;53.254;10.430;2023-04-24T13:22:43;3.20;;;1.70;;
37895;SDS011;23733;53.254;10.430;2023-04-24T13:25:09;1.90;;;1.70;;
37895;SDS011;23733;53.254;10.430;2023-04-24T13:27:37;2.50;;;1.90;;
37895;SDS011;23733;53.254;10.430;2023-04-24T13:30:04;6.93;;;1.70;;
37895;SDS011;23733;53.254;10.430;2023-04-24T13:32:30;2.03;;;1.60;;
37895;SDS011;23733;53.254;10.430;2023-04-24T13:34:58;3.67;;;1.80;;
37895;SDS011;23733;53.254;10.430;2023-04-24T13:37:24;2.93;;;1.50;;
37895;SDS011;23733;53.254;10.430;2023-04-24T13:39:51;3.60;;;1.70;;
37895;SDS011;23733;53.254;10.430;2023-04-24T13:42:17;2.90;;;1.80;;
37895;SDS011;23733;53.254;10.430;2023-04-24T13:44:44;1.90;;;1.60;;
37895;SDS011;23733;53.254;10.430;2023-04-24T13:47:10;3.23;;;1.50;;
37895;SDS011;23733;53.254;10.430;2023-04-24T13:49:36;3.20;;;1.40;;
37895;SDS011;23733;53.254;10.430;2023-04-24T13:52:02;1.67;;;1.40;;
37895;SDS011;23733;53.254;10.430;2023-04-24T13:54:28;2.37;;;1.50;;
37895;SDS011;23733;53.254;10.430;2023-04-24T13:56:55;1.93;;;1.60;;
37895;SDS011;23733;53.254;10.430;2023-04-24T13:59:23;3.27;;;1.37;;
37895;SDS011;23733;53.254;10.430;2023-04-24T14:01:49;1.80;;;1.37;;
37895;SDS011;23733;53.254;10.430;2023-04-24T14:04:15;1.53;;;1.30;;
37895;SDS011;23733;53.254;10.430;2023-04-24T14:06:41;4.10;;;1.57;;
37895;SDS011;23733;53.254;10.430;2023-04-24T14:09:08;4.03;;;1.80;;
37895;SDS011;23733;53.254;10.430;2023-04-24T14:11:34;2.30;;;1.50;;
37895;SDS011;23733;53.254;10.430;2023-04-24T14:14:00;6.27;;;2.00;;
37895;SDS011;23733;53.254;10.430;2023-04-24T14:16:27;2.60;;;1.60;;
37895;SDS011;23733;53.254;10.430;2023-04-24T14:18:54;2.00;;;1.50;;
37895;SDS011;23733;53.254;10.430;2023-04-24T14:21:20;1.77;;;1.53;;
37895;SDS011;23733;53.254;10.430;2023-04-24T14:23:46;3.77;;;1.70;;
37895;SDS011;23733;53.254;10.430;2023-04-24T14:26:13;2.03;;;1.73;;
37895;SDS011;23733;53.254;10.430;2023-04-24T14:28:39;4.00;;;1.57;;
37895;SDS011;23733;53.254;10.430;2023-04-24T14:31:05;1.73;;;1.50;;
37895;SDS011;23733;53.254;10.430;2023-04-24T14:33:31;4.40;;;1.80;;
37895;SDS011;23733;53.254;10.430;2023-04-24T14:35:57;2.47;;;1.57;;
37895;SDS011;23733;53.254;10.430;2023-04-24T14:38:23;2.97;;;1.60;;
37895;SDS011;23733;53.254;10.430;2023-04-24T14:40:49;1.77;;;1.67;;
37895;SDS011;23733;53.254;10.430;2023-04-24T14:43:15;2.70;;;1.73;;
37895;SDS011;23733;53.254;10.430;2023-04-24T14:45:41;1.90;;;1.70;;
37895;SDS011;23733;53.254;10.430;2023-04-24T14:48:07;1.90;;;1.70;;
37895;SDS011;23733;53.254;10.430;2023-04-24T14:50:33;1.40;;;1.30;;
37895;SDS011;23733;53.254;10.430;2023-04-24T14:52:59;2.03;;;1.40;;
37895;SDS011;23733;53.254;10.430;2023-04-24T14:55:27;3.97;;;1.47;;
37895;SDS011;23733;53.254;10.430;2023-04-24T14:57:54;1.53;;;1.20;;
37895;SDS011;23733;53.254;10.430;2023-04-24T15:00:20;2.80;;;1.20;;
37895;SDS011;23733;53.254;10.430;2023-04-24T15:02:48;1.37;;;0.70;;
37895;SDS011;23733;53.254;10.430;2023-04-24T15:05:14;3.30;;;0.90;;
37895;SDS011;23733;53.254;10.430;2023-04-24T15:07:40;1.10;;;0.90;;
37895;SDS011;23733;53.254;10.430;2023-04-24T15:10:10;2.40;;;0.90;;
37895;SDS011;23733;53.254;10.430;2023-04-24T15:12:36;2.60;;;0.70;;
37895;SDS011;23733;53.254;10.430;2023-04-24T15:15:02;1.07;;;0.97;;
37895;SDS011;23733;53.254;10.430;2023-04-24T15:17:29;1.63;;;1.10;;
37895;SDS011;23733;53.254;10.430;2023-04-24T15:19:55;1.57;;;1.17;;
37895;SDS011;23733;53.254;10.430;2023-04-24T15:22:22;4.30;;;2.47;;
37895;SDS011;23733;53.254;10.430;2023-04-24T15:24:48;2.17;;;1.67;;
37895;SDS011;23733;53.254;10.430;2023-04-24T15:27:14;1.07;;;0.97;;
37895;SDS011;23733;53.254;10.430;2023-04-24T15:29:40;1.17;;;1.07;;
37895;SDS011;23733;53.254;10.430;2023-04-24T15:32:06;1.10;;;1.00;;
37895;SDS011;23733;53.254;10.430;2023-04-24T15:34:32;1.00;;;0.90;;
37895;SDS011;23733;53.254;10.430;2023-04-24T15:36:59;1.10;;;1.00;;
37895;SDS011;23733;53.254;10.430;2023-04-24T15:39:26;1.27;;;1.10;;
37895;SDS011;23733;53.254;10.430;2023-04-24T15:41:52;1.97;;;1.10;;
37895;SDS011;23733;53.254;10.430;2023-04-24T15:44:19;1.20;;;1.10;;
37895;SDS011;23733;53.254;10.430;2023-04-24T15:46:46;1.40;;;1.30;;
37895;SDS011;23733;53.254;10.430;2023-04-24T15:49:12;1.30;;;1.20;;
37895;SDS011;23733;53.254;10.430;2023-04-24T15:51:38;1.37;;;1.27;;
37895;SDS011;23733;53.254;10.430;2023-04-24T15:54:04;1.93;;;1.47;;
37895;SDS011;23733;53.254;10.430;2023-04-24T15:56:30;1.93;;;1.60;;